aviador You're here:

EPRA Decoded Metar

in _UNIDENTIFIED
Report Time2017-08-22 08:30:00
UTC Time2017-08-22 09:03:26
Flight Rules vfr VFR
Wind300° at 10 kt
W.Decomp.*RWY 25: 6.9 kt HW 7.2 kt RCW
W.Rank300° ranks 4
Current wind is above 300° avg. (8.2)
Visibility9999 m
Phenomena:N/A
Clouds:Few 020 Hf
Broken 030 Hf
Expected CloudBase > 1,600 ft AGL from Temp-Dew spread
Ceiling3,000 ft
Temp16°C (ISA +2)
Dew Point12°C (77% RH)
AAT13.0°C
QNH1017 hPa
Density Alt892 ft
Elevation584 ft
Report Wrong Elevation
Raw Report
METAR EPRA 220830Z 30010KT 9999 FEW020 BKN030 16/12 Q1017=

Extra information for EPRA:More info

Metar Taf Metar & Taf Last 4 Metars F.Rules Stats Wind Profile Meteogram Temp Stats Metar ALERT Operation Metar Decoded Social comments